Pagina principale
METAR-TAF:

METAR-TAF

Aeroporti :

Aeroporto di Kangerlussuaq

Kangerlussuaq, Groenlandia

latitudine: 67-01N, longitudine: 050-42W, altezza: 50 m

Osservazione

Il bollettino è stato emesso 17 minuti fa, alle 11:50 UTC
Vento 3 kt da direzioni variabili
Temperature 13°C
Umidità 67%
Pressione 1021 hPa
Visibilità 10 km o più

METAR: BGSF 261150Z AUTO VRB03KT 9999NDV NCD 13/07 Q1021

Ora: 10:07 (12:07 UTC)

Previsione

Il bollettino è stato emesso 1 ora e 11 minuti fa, alle 10:56 UTC
Previsione valida dal 26 alle 12 UTC al 27 alle 01 UTC
Vento 8 kt da nord-est
Visibilità 10 km o più
Poco nuvoloso ad un'altezza di 5000 ft
Nuvoloso ad un'altezza di 15000 ft
Temporaneamente
dal 26 alle 15 UTC al 27 alle 01 UTC
Nuvoloso ad un'altezza di 5000 ft

TAF: BGSF 261056Z 2612/2701 05008KT 9999 FEW050 BKN150 TEMPO 2615/2701 BKN050

Osservazioni e previsioni meteorologiche di più di 4000 aeroporti (messaggi METAR e TAF).

Le stazioni disponibili sono rappresentate dai dischi gialli e rossi sulla carta.

Puntare il mouse per vedere il nome della stazione.

Clicca sopra per visualizzare le osservazioni e previsioni meteorologiche.

Per cambiare la mappa : fare clic sui pulsanti verdi con una croce nera per ingrandire, il pulsante verde con un trattino per diminuire, o sulla freccia verde per le mappe adiacenti.


METAR-TAF: